createdAt,value
2019-01-26T00:02:09.647Z,158.33
2019-01-26T00:04:38.831Z,149.63
2019-01-26T00:07:07.990Z,150.63
2019-01-26T00:09:37.133Z,147.27
2019-01-26T00:12:06.277Z,138.50
2019-01-26T00:14:35.553Z,152.80
2019-01-26T00:17:04.705Z,142.17
2019-01-26T00:19:33.862Z,142.30
2019-01-26T00:22:03.021Z,150.37
2019-01-26T00:24:32.198Z,161.70
2019-01-26T00:27:01.402Z,156.30
2019-01-26T00:29:30.597Z,156.40
2019-01-26T00:31:59.737Z,153.63
2019-01-26T00:34:28.942Z,158.23
2019-01-26T00:36:58.109Z,174.03
2019-01-26T00:39:27.314Z,164.50
2019-01-26T00:41:56.454Z,185.63
2019-01-26T00:44:25.593Z,163.17
2019-01-26T00:46:54.780Z,176.57
2019-01-26T00:49:23.985Z,161.47
2019-01-26T00:51:53.182Z,182.60
2019-01-26T00:54:22.393Z,181.87
2019-01-26T00:56:51.569Z,215.30
2019-01-26T00:59:20.726Z,193.70
2019-01-26T01:01:49.863Z,210.07
2019-01-26T01:04:19.026Z,211.60
2019-01-26T01:06:48.318Z,252.50
2019-01-26T01:09:37.960Z,259.60
2019-01-26T01:12:07.345Z,270.53
2019-01-26T01:14:36.509Z,273.03
2019-01-26T01:17:05.690Z,267.27
2019-01-26T01:19:34.834Z,269.17
2019-01-26T01:22:04.101Z,270.00
2019-01-26T01:24:33.250Z,286.53
2019-01-26T01:27:02.397Z,285.93
2019-01-26T01:29:31.606Z,270.03
2019-01-26T01:32:00.769Z,287.07
2019-01-26T01:34:29.976Z,281.90
2019-01-26T01:36:59.355Z,268.97
2019-01-26T01:39:28.777Z,249.83
2019-01-26T01:41:58.120Z,247.70
2019-01-26T01:44:27.437Z,269.90
2019-01-26T01:46:56.585Z,271.97
2019-01-26T01:49:25.910Z,245.23
2019-01-26T01:51:55.554Z,236.50
2019-01-26T01:54:24.706Z,236.47
2019-01-26T01:56:53.839Z,239.90
2019-01-26T01:59:23.013Z,225.23
2019-01-26T02:01:52.154Z,226.67
2019-01-26T02:04:21.310Z,213.03
2019-01-26T02:06:50.558Z,206.73
2019-01-26T02:09:19.733Z,209.93
2019-01-26T02:11:48.878Z,206.23
2019-01-26T02:14:18.073Z,199.67
2019-01-26T02:16:50.197Z,203.10
2019-01-26T02:19:18.173Z,186.70
2019-01-26T02:21:47.326Z,191.13
2019-01-26T02:24:16.525Z,184.40
2019-01-26T02:26:45.752Z,181.13
2019-01-26T02:29:15.055Z,184.53
2019-01-26T02:31:44.181Z,166.97
2019-01-26T02:34:13.321Z,171.90
2019-01-26T02:36:42.594Z,173.27
2019-01-26T02:39:11.762Z,172.77
2019-01-26T02:41:40.901Z,172.23
2019-01-26T02:44:10.102Z,167.67
2019-01-26T02:46:39.247Z,151.87
2019-01-26T02:49:08.489Z,160.53
2019-01-26T02:51:37.636Z,158.20
2019-01-26T02:54:06.778Z,158.70
2019-01-26T02:56:35.969Z,164.43
2019-01-26T02:59:05.237Z,151.70
2019-01-26T03:01:34.758Z,146.87
2019-01-26T03:04:04.386Z,142.20
2019-01-26T03:06:33.589Z,147.03
2019-01-26T03:09:03.714Z,147.07
2019-01-26T03:11:32.935Z,145.20
2019-01-26T03:14:02.200Z,140.60
2019-01-26T03:16:31.698Z,140.33
2019-01-26T03:19:00.838Z,128.77
2019-01-26T03:21:30.046Z,128.70
2019-01-26T03:23:59.180Z,137.13
2019-01-26T03:26:28.346Z,132.90
2019-01-26T03:28:57.506Z,126.30
2019-01-26T03:31:26.702Z,116.87
2019-01-26T03:33:56.014Z,116.67
2019-01-26T03:36:25.199Z,127.60
2019-01-26T03:38:54.769Z,120.70
2019-01-26T03:41:24.125Z,111.00
2019-01-26T03:43:53.445Z,110.30
2019-01-26T03:46:22.827Z,111.07
2019-01-26T03:48:51.965Z,99.50
2019-01-26T03:51:21.329Z,109.80
2019-01-26T03:53:50.475Z,114.57
2019-01-26T03:56:19.673Z,106.17
2019-01-26T03:58:48.858Z,100.50
2019-01-26T04:01:18.018Z,97.43
2019-01-26T04:03:47.189Z,112.00
2019-01-26T04:06:16.706Z,95.80
2019-01-26T04:08:45.857Z,107.37
2019-01-26T04:11:15.023Z,101.90
2019-01-26T04:13:44.345Z,93.83
2019-01-26T04:16:13.596Z,92.47
2019-01-26T04:18:42.811Z,97.23
2019-01-26T04:21:12.008Z,100.10
2019-01-26T04:23:41.193Z,95.57
2019-01-26T04:26:10.480Z,93.67
2019-01-26T04:28:39.753Z,97.10
2019-01-26T04:31:08.937Z,105.13
2019-01-26T04:33:38.087Z,97.33
2019-01-26T04:36:07.756Z,92.47
2019-01-26T04:38:36.952Z,91.83
2019-01-26T04:41:06.220Z,93.13
2019-01-26T04:43:35.369Z,90.90
2019-01-26T04:46:04.545Z,98.63
2019-01-26T04:48:33.731Z,102.27
2019-01-26T04:51:02.902Z,94.27
2019-01-26T04:53:32.118Z,91.63
2019-01-26T04:56:01.338Z,99.20
2019-01-26T04:58:30.497Z,91.83
2019-01-26T05:00:59.711Z,97.60
2019-01-26T05:03:28.846Z,95.63
2019-01-26T05:05:58.004Z,91.00
2019-01-26T05:08:27.321Z,88.87
2019-01-26T05:10:56.466Z,89.03
2019-01-26T05:13:25.637Z,93.57
2019-01-26T05:15:54.813Z,91.60
2019-01-26T05:18:24.158Z,94.97
2019-01-26T05:20:53.322Z,88.53
2019-01-26T05:23:22.491Z,93.37
2019-01-26T05:25:51.636Z,90.93
2019-01-26T05:28:20.781Z,85.10
2019-01-26T05:30:49.969Z,89.93
2019-01-26T05:33:19.110Z,86.83
2019-01-26T05:35:48.255Z,89.80
2019-01-26T05:38:17.425Z,92.43
2019-01-26T05:40:46.563Z,90.47
2019-01-26T05:43:15.786Z,80.80
2019-01-26T05:45:44.988Z,92.67
2019-01-26T05:48:14.134Z,86.20
2019-01-26T05:50:43.361Z,89.63
2019-01-26T05:53:12.531Z,82.80
2019-01-26T05:55:41.709Z,84.10
2019-01-26T05:58:10.921Z,88.13
2019-01-26T06:00:40.142Z,84.97
2019-01-26T06:03:09.482Z,83.40
2019-01-26T06:05:38.637Z,82.40
2019-01-26T06:08:07.862Z,85.77
2019-01-26T06:10:37.064Z,93.07
2019-01-26T06:13:06.211Z,89.87
2019-01-26T06:15:35.390Z,93.77
2019-01-26T06:18:04.657Z,89.63
2019-01-26T06:20:33.790Z,95.00
2019-01-26T06:23:03.062Z,86.57
2019-01-26T06:25:33.166Z,92.70
2019-01-26T06:28:02.343Z,96.00
2019-01-26T06:30:31.599Z,100.30
2019-01-26T06:33:00.749Z,98.83
2019-01-26T06:35:29.913Z,88.23
2019-01-26T06:37:59.062Z,93.03
2019-01-26T06:40:28.310Z,94.90
2019-01-26T06:42:57.613Z,94.50
2019-01-26T06:45:26.789Z,90.93
2019-01-26T06:48:02.087Z,94.47
2019-01-26T06:50:28.316Z,83.83
2019-01-26T06:52:57.469Z,80.50
2019-01-26T06:55:26.725Z,87.00
2019-01-26T06:57:55.910Z,83.37
2019-01-26T07:00:29.459Z,85.97
2019-01-26T07:02:59.433Z,81.77
2019-01-26T07:05:39.316Z,85.70
2019-01-26T07:08:10.453Z,82.43
2019-01-26T07:10:39.662Z,89.33
2019-01-26T07:13:08.869Z,98.13
2019-01-26T07:15:38.165Z,88.67
2019-01-26T07:18:09.642Z,83.00
2019-01-26T07:20:38.461Z,83.93
2019-01-26T07:23:07.890Z,87.67
2019-01-26T07:25:37.018Z,95.27
2019-01-26T07:28:06.154Z,92.90
2019-01-26T07:30:35.446Z,89.37
2019-01-26T07:33:04.901Z,92.00
2019-01-26T07:35:34.114Z,92.90
2019-01-26T07:38:03.329Z,94.90
2019-01-26T07:40:32.573Z,92.30
2019-01-26T07:43:01.785Z,92.50
2019-01-26T07:45:31.292Z,98.37
2019-01-26T07:48:00.593Z,94.20
2019-01-26T07:50:29.801Z,91.30
2019-01-26T07:52:59.042Z,88.47
2019-01-26T07:55:28.357Z,83.70
2019-01-26T07:57:57.773Z,88.43
2019-01-26T08:00:27.379Z,90.20
2019-01-26T08:03:02.625Z,88.87
2019-01-26T08:05:31.953Z,86.90
2019-01-26T08:08:01.322Z,78.87
2019-01-26T08:10:30.677Z,79.37
2019-01-26T08:12:59.877Z,85.63
2019-01-26T08:15:34.501Z,83.17
2019-01-26T08:18:04.589Z,83.60
2019-01-26T08:20:33.722Z,88.50
2019-01-26T08:23:03.215Z,88.53
2019-01-26T08:26:01.157Z,86.67
2019-01-26T08:28:30.430Z,92.63
2019-01-26T08:30:59.801Z,93.53
2019-01-26T08:33:29.306Z,94.60
2019-01-26T08:35:58.505Z,102.47
2019-01-26T08:38:28.904Z,95.03
2019-01-26T08:41:01.401Z,104.07
2019-01-26T08:43:30.573Z,88.83
2019-01-26T08:45:59.958Z,95.90
2019-01-26T08:48:31.334Z,100.80
2019-01-26T08:51:00.166Z,92.97
2019-01-26T08:53:29.374Z,97.93
2019-01-26T08:55:58.523Z,101.40
2019-01-26T08:58:27.730Z,82.50
2019-01-26T09:00:56.950Z,96.20
2019-01-26T09:03:38.673Z,102.20
2019-01-26T09:06:11.353Z,105.53
2019-01-26T09:08:40.486Z,90.13
2019-01-26T09:11:09.737Z,97.33
2019-01-26T09:13:39.170Z,87.73
2019-01-26T09:16:09.117Z,100.67
2019-01-26T09:18:38.950Z,102.27
2019-01-26T09:21:08.489Z,98.27
2019-01-26T09:23:37.657Z,95.17
2019-01-26T09:26:07.348Z,98.33
2019-01-26T09:28:36.907Z,92.80
2019-01-26T09:31:06.322Z,97.77
2019-01-26T09:33:35.514Z,99.97
2019-01-26T09:36:05.814Z,100.17
2019-01-26T09:38:35.158Z,104.60
2019-01-26T09:41:04.600Z,90.87
2019-01-26T09:43:33.939Z,101.00
2019-01-26T09:46:03.219Z,93.10
2019-01-26T09:48:32.441Z,93.27
2019-01-26T09:51:01.713Z,98.30
2019-01-26T09:53:30.895Z,87.70
2019-01-26T09:56:00.242Z,81.23
2019-01-26T09:58:29.517Z,82.00
2019-01-26T10:00:58.841Z,78.83
2019-01-26T10:03:28.154Z,88.43
2019-01-26T10:05:57.385Z,79.90
2019-01-26T10:08:26.709Z,85.40
2019-01-26T10:10:56.011Z,91.60
2019-01-26T10:13:25.245Z,90.90
2019-01-26T10:15:54.570Z,86.33
2019-01-26T10:18:23.866Z,85.73
2019-01-26T10:21:06.854Z,88.87
2019-01-26T10:23:36.101Z,94.17
2019-01-26T10:26:05.310Z,92.27
2019-01-26T10:28:34.517Z,91.20
2019-01-26T10:31:03.770Z,93.10
2019-01-26T10:33:33.001Z,100.43
2019-01-26T10:36:21.290Z,99.10
2019-01-26T10:39:00.441Z,100.43
2019-01-26T10:41:48.022Z,96.93
2019-01-26T10:44:28.605Z,99.00
2019-01-26T10:46:57.964Z,98.27
2019-01-26T10:49:27.281Z,96.83
2019-01-26T10:51:56.482Z,97.20
2019-01-26T10:54:25.609Z,95.50
2019-01-26T10:56:54.850Z,87.43
2019-01-26T10:59:24.186Z,103.13
2019-01-26T11:01:53.346Z,99.33
2019-01-26T11:04:45.414Z,100.97
2019-01-26T11:07:22.581Z,103.37
2019-01-26T11:09:51.782Z,102.10
2019-01-26T11:12:21.002Z,109.03
2019-01-26T11:14:56.274Z,117.30
2019-01-26T11:17:36.269Z,123.07
2019-01-26T11:20:07.102Z,122.63
2019-01-26T11:22:36.358Z,123.27
2019-01-26T11:25:06.833Z,125.67
2019-01-26T11:27:35.981Z,119.17
2019-01-26T11:30:06.661Z,115.70
2019-01-26T11:32:35.854Z,102.10
2019-01-26T11:35:05.904Z,109.27
2019-01-26T11:37:35.055Z,89.90
2019-01-26T11:40:12.088Z,90.53
2019-01-26T11:42:41.270Z,80.60
2019-01-26T11:45:47.722Z,75.70
2019-01-26T11:48:23.390Z,71.33
2019-01-26T11:50:57.898Z,81.07
2019-01-26T11:53:27.118Z,83.23
2019-01-26T11:56:24.622Z,80.93
2019-01-26T11:58:53.781Z,79.93
2019-01-26T12:01:41.974Z,89.57
2019-01-26T12:04:28.778Z,79.07
2019-01-26T12:07:03.169Z,81.23
2019-01-26T12:09:32.465Z,68.83
2019-01-26T12:12:01.785Z,70.60
2019-01-26T12:14:30.938Z,67.47
2019-01-26T12:17:00.086Z,73.43
2019-01-26T12:19:29.874Z,84.97
2019-01-26T12:21:59.015Z,78.03
2019-01-26T12:24:28.219Z,82.53
2019-01-26T12:26:57.377Z,78.53
2019-01-26T12:29:26.678Z,76.43
2019-01-26T12:31:56.154Z,88.27
2019-01-26T12:34:25.313Z,93.57
2019-01-26T12:36:54.474Z,90.40
2019-01-26T12:39:23.597Z,81.57
2019-01-26T12:41:52.729Z,70.80
2019-01-26T12:44:21.918Z,73.03
2019-01-26T12:46:51.174Z,75.17
2019-01-26T12:49:20.317Z,66.87
2019-01-26T12:51:49.485Z,75.33
2019-01-26T12:54:18.622Z,82.90
2019-01-26T12:56:49.046Z,80.30
2019-01-26T12:59:18.337Z,87.97
2019-01-26T13:01:47.466Z,75.00
2019-01-26T13:04:16.706Z,79.23
2019-01-26T13:06:45.892Z,72.07
2019-01-26T13:09:15.055Z,91.10
2019-01-26T13:11:45.176Z,90.73
2019-01-26T13:14:14.518Z,79.23
2019-01-26T13:16:43.679Z,82.23
2019-01-26T13:19:13.030Z,74.57
2019-01-26T13:21:42.158Z,73.43
2019-01-26T13:24:11.331Z,78.23
2019-01-26T13:26:40.582Z,71.50
2019-01-26T13:29:09.702Z,76.87
2019-01-26T13:31:38.889Z,78.33
2019-01-26T13:34:08.027Z,80.43
2019-01-26T13:36:37.153Z,85.97
2019-01-26T13:39:09.450Z,81.53
2019-01-26T13:41:39.090Z,85.43
2019-01-26T13:44:08.326Z,80.83
2019-01-26T13:46:37.577Z,88.93
2019-01-26T13:49:06.810Z,90.93
2019-01-26T13:51:35.941Z,85.73
2019-01-26T13:54:05.326Z,83.07
2019-01-26T13:56:34.526Z,82.90
2019-01-26T13:59:03.733Z,81.07
2019-01-26T14:01:32.938Z,92.30
2019-01-26T14:04:02.097Z,78.37
2019-01-26T14:06:31.330Z,86.00
2019-01-26T14:09:00.637Z,94.23
2019-01-26T14:11:29.886Z,99.57
2019-01-26T14:13:59.178Z,91.93
2019-01-26T14:16:28.469Z,90.07
2019-01-26T14:18:57.642Z,93.53
2019-01-26T14:21:26.827Z,94.77
2019-01-26T14:23:56.067Z,97.13
2019-01-26T14:26:25.258Z,98.20
2019-01-26T14:28:54.521Z,92.30
2019-01-26T14:31:23.718Z,90.00
2019-01-26T14:33:52.942Z,82.03
2019-01-26T14:36:22.084Z,85.43
2019-01-26T14:38:51.519Z,85.60
2019-01-26T14:41:20.805Z,92.40
2019-01-26T14:43:49.959Z,81.63
2019-01-26T14:46:19.261Z,80.23
2019-01-26T14:48:48.548Z,86.70
2019-01-26T14:51:18.271Z,91.97
2019-01-26T14:53:47.953Z,91.37
2019-01-26T14:56:17.298Z,102.70
2019-01-26T14:58:46.445Z,96.00
2019-01-26T15:01:15.713Z,92.37
2019-01-26T15:03:44.914Z,104.57
2019-01-26T15:06:14.094Z,97.23
2019-01-26T15:08:43.263Z,93.40
2019-01-26T15:11:12.394Z,87.60
2019-01-26T15:13:41.623Z,91.07
2019-01-26T15:16:10.909Z,85.63
2019-01-26T15:18:40.121Z,96.13
2019-01-26T15:21:09.286Z,99.50
2019-01-26T15:23:38.457Z,96.90
2019-01-26T15:26:07.684Z,95.40
2019-01-26T15:28:42.816Z,98.67
2019-01-26T15:31:07.700Z,89.07
2019-01-26T15:33:36.871Z,93.40
2019-01-26T15:36:09.086Z,92.63
2019-01-26T15:38:37.122Z,96.13
2019-01-26T15:41:06.268Z,95.57
2019-01-26T15:43:35.424Z,92.53
2019-01-26T15:46:04.697Z,88.90
2019-01-26T15:48:33.915Z,83.30
2019-01-26T15:51:03.190Z,92.17
2019-01-26T15:53:32.416Z,97.00
2019-01-26T15:56:01.666Z,94.97
2019-01-26T15:58:30.818Z,98.63
2019-01-26T16:00:59.988Z,95.93
2019-01-26T16:03:29.147Z,96.30
2019-01-26T16:05:58.294Z,95.63
2019-01-26T16:08:27.486Z,88.37
2019-01-26T16:10:56.669Z,96.10
2019-01-26T16:13:25.802Z,91.57
2019-01-26T16:15:55.062Z,94.33
2019-01-26T16:18:24.262Z,81.87
2019-01-26T16:20:53.430Z,74.80
2019-01-26T16:23:22.656Z,90.40
2019-01-26T16:25:51.902Z,88.47
2019-01-26T16:28:21.409Z,86.97
2019-01-26T16:30:50.784Z,89.47
2019-01-26T16:33:19.941Z,102.07
2019-01-26T16:35:49.202Z,105.67
2019-01-26T16:38:18.424Z,100.33
2019-01-26T16:40:47.660Z,103.60
2019-01-26T16:43:16.827Z,95.77
2019-01-26T16:45:46.131Z,108.00
2019-01-26T16:48:16.051Z,104.23
2019-01-26T16:50:45.237Z,104.87
2019-01-26T16:53:14.498Z,104.40
2019-01-26T16:55:43.686Z,109.37
2019-01-26T16:58:12.814Z,102.93
2019-01-26T17:00:47.040Z,105.13
2019-01-26T17:03:16.343Z,99.60
2019-01-26T17:05:45.529Z,107.37
2019-01-26T17:08:14.690Z,112.67
2019-01-26T17:10:43.943Z,119.07
2019-01-26T17:13:13.166Z,123.93
2019-01-26T17:15:42.306Z,113.90
2019-01-26T17:18:13.812Z,98.57
2019-01-26T17:20:43.396Z,103.67
2019-01-26T17:23:12.591Z,98.53
2019-01-26T17:25:41.765Z,100.70
2019-01-26T17:28:10.902Z,100.70
2019-01-26T17:30:41.534Z,110.47
2019-01-26T17:33:10.805Z,101.07
2019-01-26T17:35:39.977Z,103.20
2019-01-26T17:38:09.189Z,99.67
2019-01-26T17:40:38.334Z,108.13
2019-01-26T17:43:07.787Z,104.60
2019-01-26T17:45:36.916Z,112.10
2019-01-26T17:48:07.269Z,115.43
2019-01-26T17:50:42.068Z,111.27
2019-01-26T17:53:07.313Z,109.20
2019-01-26T17:55:36.611Z,110.70
2019-01-26T17:58:05.983Z,122.17
2019-01-26T18:00:46.972Z,112.33
2019-01-26T18:03:16.999Z,105.33
2019-01-26T18:05:46.149Z,99.87
2019-01-26T18:08:16.118Z,104.33
2019-01-26T18:10:45.296Z,98.63
2019-01-26T18:13:14.497Z,90.90
2019-01-26T18:15:43.658Z,112.87
2019-01-26T18:18:12.838Z,108.60
2019-01-26T18:20:42.054Z,91.43
2019-01-26T18:23:11.718Z,103.70
2019-01-26T18:25:41.741Z,103.23
2019-01-26T18:28:10.985Z,111.47
2019-01-26T18:30:41.453Z,118.03
2019-01-26T18:33:10.724Z,118.53
2019-01-26T18:35:39.883Z,121.80
2019-01-26T18:38:09.487Z,114.83
2019-01-26T18:40:38.696Z,111.07
2019-01-26T18:43:07.947Z,113.43
2019-01-26T18:45:37.245Z,116.20
2019-01-26T18:48:06.777Z,112.60
2019-01-26T18:50:37.879Z,125.33
2019-01-26T18:53:07.363Z,107.33
2019-01-26T18:55:36.518Z,111.33
2019-01-26T18:58:05.914Z,111.53
2019-01-26T19:00:38.197Z,113.33
2019-01-26T19:03:23.266Z,113.63
2019-01-26T19:05:54.394Z,116.10
2019-01-26T19:08:23.541Z,109.87
2019-01-26T19:10:52.830Z,109.77
2019-01-26T19:13:21.965Z,116.43
2019-01-26T19:15:51.182Z,108.40
2019-01-26T19:18:20.446Z,118.73
2019-01-26T19:20:49.830Z,117.30
2019-01-26T19:23:19.109Z,119.67
2019-01-26T19:25:48.298Z,115.77
2019-01-26T19:28:17.526Z,111.63
2019-01-26T19:30:46.766Z,109.43
2019-01-26T19:33:16.001Z,123.90
2019-01-26T19:35:45.154Z,114.50
2019-01-26T19:38:14.330Z,127.97
2019-01-26T19:40:43.508Z,122.57
2019-01-26T19:43:12.690Z,119.53
2019-01-26T19:45:41.878Z,120.87
2019-01-26T19:48:11.007Z,112.13
2019-01-26T19:50:40.146Z,121.03
2019-01-26T19:53:09.327Z,113.03
2019-01-26T19:55:38.442Z,127.93
2019-01-26T19:58:07.602Z,113.53
2019-01-26T20:00:36.842Z,119.33
2019-01-26T20:03:06.081Z,114.43
2019-01-26T20:05:35.214Z,123.80
2019-01-26T20:08:04.649Z,122.70
2019-01-26T20:10:33.882Z,120.07
2019-01-26T20:13:03.082Z,110.00
2019-01-26T20:15:32.322Z,119.30
2019-01-26T20:18:01.524Z,117.67
2019-01-26T20:20:32.705Z,119.07
2019-01-26T20:23:01.833Z,121.53
2019-01-26T20:25:31.138Z,125.80
2019-01-26T20:28:00.329Z,127.17
2019-01-26T20:30:31.108Z,128.33
2019-01-26T20:33:00.374Z,132.47
2019-01-26T20:35:29.717Z,123.17
2019-01-26T20:37:58.873Z,113.30
2019-01-26T20:40:28.149Z,116.47
2019-01-26T20:42:57.281Z,109.73
2019-01-26T20:45:27.641Z,115.20
2019-01-26T20:47:56.783Z,113.77
2019-01-26T20:50:25.913Z,99.77
2019-01-26T20:52:55.442Z,110.77
2019-01-26T20:55:24.570Z,102.40
2019-01-26T20:57:54.079Z,100.30
2019-01-26T21:00:27.927Z,104.13
2019-01-26T21:02:57.185Z,100.77
2019-01-26T21:05:26.491Z,109.87
2019-01-26T21:07:55.682Z,104.53
2019-01-26T21:10:26.827Z,108.03
2019-01-26T21:12:56.085Z,116.53
2019-01-26T21:15:25.233Z,108.50
2019-01-26T21:17:54.403Z,118.17
2019-01-26T21:20:24.778Z,118.87
2019-01-26T21:22:54.105Z,117.70
2019-01-26T21:25:23.481Z,114.60
2019-01-26T21:27:52.666Z,111.93
2019-01-26T21:30:26.481Z,104.77
2019-01-26T21:32:55.774Z,106.90
2019-01-26T21:35:25.749Z,112.90
2019-01-26T21:37:54.992Z,106.07
2019-01-26T21:40:26.562Z,105.53
2019-01-26T21:42:55.734Z,103.33
2019-01-26T21:45:24.987Z,108.30
2019-01-26T21:47:54.225Z,104.60
2019-01-26T21:50:25.425Z,128.10
2019-01-26T21:52:54.571Z,127.47
2019-01-26T21:55:23.787Z,134.07
2019-01-26T21:57:53.078Z,141.10
2019-01-26T22:00:27.489Z,151.33
2019-01-26T22:02:56.657Z,167.80
2019-01-26T22:05:25.828Z,165.13
2019-01-26T22:07:55.035Z,163.23
2019-01-26T22:10:24.334Z,154.87
2019-01-26T22:12:53.486Z,159.43
2019-01-26T22:15:23.465Z,146.07
2019-01-26T22:17:52.711Z,139.07
2019-01-26T22:20:23.693Z,146.07
2019-01-26T22:22:52.990Z,139.57
2019-01-26T22:25:22.515Z,137.30
2019-01-26T22:27:52.446Z,137.73
2019-01-26T22:30:26.886Z,133.40
2019-01-26T22:32:56.266Z,126.53
2019-01-26T22:35:25.626Z,127.80
2019-01-26T22:37:54.856Z,132.47
2019-01-26T22:40:29.311Z,122.63
2019-01-26T22:42:58.569Z,126.83
2019-01-26T22:45:28.011Z,128.53
2019-01-26T22:47:57.329Z,130.37
2019-01-26T22:50:26.658Z,120.43
2019-01-26T22:52:55.825Z,111.53
2019-01-26T22:55:25.249Z,121.30
2019-01-26T22:57:55.033Z,125.80
2019-01-26T23:00:58.590Z,116.37
2019-01-26T23:03:32.742Z,115.97
2019-01-26T23:06:33.461Z,112.53
2019-01-26T23:09:10.563Z,119.27
2019-01-26T23:12:02.080Z,125.10
2019-01-26T23:14:50.485Z,115.87
2019-01-26T23:17:55.486Z,113.23
2019-01-26T23:21:20.925Z,110.37
2019-01-26T23:24:18.738Z,118.60
2019-01-26T23:27:29.286Z,117.17
2019-01-26T23:30:45.421Z,107.47
2019-01-26T23:33:14.629Z,119.10
2019-01-26T23:35:43.973Z,106.73
2019-01-26T23:38:13.127Z,106.20
2019-01-26T23:40:42.300Z,109.70
2019-01-26T23:43:11.541Z,97.07
2019-01-26T23:45:40.690Z,110.37
2019-01-26T23:48:09.890Z,93.73
2019-01-26T23:50:39.067Z,88.53
2019-01-26T23:53:08.275Z,91.33
2019-01-26T23:55:37.476Z,85.63
2019-01-26T23:58:07.394Z,85.27
